sensor_id;sensor_type;location;lat;lon;timestamp;noise_LAeq;noise_LA_min;noise_LA_max;noise_LA01;noise_LA95
37223;Laerm;28026;48.562;14.440;2023-02-14T00:00:45;37.68;32.93;43.28;;
37223;Laerm;28026;48.562;14.440;2023-02-14T00:03:16;38.51;32.35;44.76;;
37223;Laerm;28026;48.562;14.440;2023-02-14T00:05:47;41.86;34.69;51.79;;
37223;Laerm;28026;48.562;14.440;2023-02-14T00:08:19;37.83;32.93;41.30;;
37223;Laerm;28026;48.562;14.440;2023-02-14T00:10:50;37.52;32.93;40.62;;
37223;Laerm;28026;48.562;14.440;2023-02-14T00:13:20;39.04;34.69;44.23;;
37223;Laerm;28026;48.562;14.440;2023-02-14T00:15:51;38.10;32.93;41.38;;
37223;Laerm;28026;48.562;14.440;2023-02-14T00:18:22;37.83;32.93;40.98;;
37223;Laerm;28026;48.562;14.440;2023-02-14T00:21:13;38.50;33.44;44.58;;
37223;Laerm;28026;48.562;14.440;2023-02-14T00:23:44;38.58;33.90;41.38;;
37223;Laerm;28026;48.562;14.440;2023-02-14T00:26:15;39.01;35.04;41.53;;
37223;Laerm;28026;48.562;14.440;2023-02-14T00:28:46;39.53;35.66;43.24;;
37223;Laerm;28026;48.562;14.440;2023-02-14T00:31:17;40.18;35.66;44.58;;
37223;Laerm;28026;48.562;14.440;2023-02-14T00:33:48;39.24;34.69;43.29;;
37223;Laerm;28026;48.562;14.440;2023-02-14T00:36:20;39.17;34.31;42.93;;
37223;Laerm;28026;48.562;14.440;2023-02-14T00:38:51;39.82;35.94;42.41;;
37223;Laerm;28026;48.562;14.440;2023-02-14T00:41:22;38.98;34.31;41.68;;
37223;Laerm;28026;48.562;14.440;2023-02-14T00:43:53;39.66;35.94;42.35;;
37223;Laerm;28026;48.562;14.440;2023-02-14T00:46:26;38.93;34.69;41.53;;
37223;Laerm;28026;48.562;14.440;2023-02-14T00:48:57;38.77;34.69;41.55;;
37223;Laerm;28026;48.562;14.440;2023-02-14T00:51:29;38.82;35.66;41.22;;
37223;Laerm;28026;48.562;14.440;2023-02-14T00:54:00;38.60;34.69;41.33;;
37223;Laerm;28026;48.562;14.440;2023-02-14T00:56:31;38.51;34.69;42.47;;
37223;Laerm;28026;48.562;14.440;2023-02-14T00:59:02;38.06;33.90;40.98;;
37223;Laerm;28026;48.562;14.440;2023-02-14T01:01:34;37.99;33.90;40.71;;
37223;Laerm;28026;48.562;14.440;2023-02-14T01:04:05;37.94;34.31;40.89;;
37223;Laerm;28026;48.562;14.440;2023-02-14T01:06:37;37.95;32.93;40.71;;
37223;Laerm;28026;48.562;14.440;2023-02-14T01:09:08;37.95;32.93;41.06;;
37223;Laerm;28026;48.562;14.440;2023-02-14T01:11:39;38.38;34.31;41.14;;
37223;Laerm;28026;48.562;14.440;2023-02-14T01:14:10;39.54;35.04;43.81;;
37223;Laerm;28026;48.562;14.440;2023-02-14T01:16:41;38.81;33.44;43.72;;
37223;Laerm;28026;48.562;14.440;2023-02-14T01:19:12;38.43;34.69;41.38;;
37223;Laerm;28026;48.562;14.440;2023-02-14T01:21:43;37.84;32.93;40.62;;
37223;Laerm;28026;48.562;14.440;2023-02-14T01:24:14;37.80;33.44;41.46;;
37223;Laerm;28026;48.562;14.440;2023-02-14T01:26:45;38.21;33.44;40.98;;
37223;Laerm;28026;48.562;14.440;2023-02-14T01:29:16;38.17;33.44;40.89;;
37223;Laerm;28026;48.562;14.440;2023-02-14T01:31:47;37.97;33.44;40.71;;
37223;Laerm;28026;48.562;14.440;2023-02-14T01:34:18;38.40;33.90;41.22;;
37223;Laerm;28026;48.562;14.440;2023-02-14T01:36:49;39.57;35.66;43.77;;
37223;Laerm;28026;48.562;14.440;2023-02-14T01:39:20;39.77;35.66;42.71;;
37223;Laerm;28026;48.562;14.440;2023-02-14T01:41:51;39.31;35.04;41.96;;
37223;Laerm;28026;48.562;14.440;2023-02-14T01:47:09;38.99;34.31;48.07;;
37223;Laerm;28026;48.562;14.440;2023-02-14T01:49:48;38.38;33.44;42.59;;
37223;Laerm;28026;48.562;14.440;2023-02-14T01:52:36;38.31;34.31;41.75;;
37223;Laerm;28026;48.562;14.440;2023-02-14T01:55:19;38.19;33.90;41.14;;
37223;Laerm;28026;48.562;14.440;2023-02-14T01:58:00;38.11;33.44;44.54;;
37223;Laerm;28026;48.562;14.440;2023-02-14T02:00:32;38.56;33.44;43.49;;
37223;Laerm;28026;48.562;14.440;2023-02-14T02:03:47;38.37;33.90;42.59;;
37223;Laerm;28026;48.562;14.440;2023-02-14T02:06:37;39.08;34.69;46.07;;
37223;Laerm;28026;48.562;14.440;2023-02-14T02:09:39;40.63;34.69;45.42;;
37223;Laerm;28026;48.562;14.440;2023-02-14T02:12:13;38.17;33.55;41.30;;
37223;Laerm;28026;48.562;14.440;2023-02-14T02:14:45;37.89;33.90;44.27;;
37223;Laerm;28026;48.562;14.440;2023-02-14T02:42:45;38.88;34.31;47.86;;
37223;Laerm;28026;48.562;14.440;2023-02-14T02:48:47;38.76;34.31;55.58;;
37223;Laerm;28026;48.562;14.440;2023-02-14T02:51:47;39.08;35.36;53.19;;
37223;Laerm;28026;48.562;14.440;2023-02-14T02:54:59;39.40;34.31;45.01;;
37223;Laerm;28026;48.562;14.440;2023-02-14T02:57:39;41.09;34.69;46.18;;
37223;Laerm;28026;48.562;14.440;2023-02-14T03:00:16;38.75;34.69;41.53;;
37223;Laerm;28026;48.562;14.440;2023-02-14T03:02:54;38.77;35.04;41.14;;
37223;Laerm;28026;48.562;14.440;2023-02-14T03:05:44;40.36;34.31;56.73;;
37223;Laerm;28026;48.562;14.440;2023-02-14T03:08:16;38.42;34.69;47.14;;
37223;Laerm;28026;48.562;14.440;2023-02-14T03:10:47;39.29;35.36;42.76;;
37223;Laerm;28026;48.562;14.440;2023-02-14T03:13:58;41.77;36.69;56.69;;
37223;Laerm;28026;48.562;14.440;2023-02-14T03:16:40;40.06;35.04;63.69;;
37223;Laerm;28026;48.562;14.440;2023-02-14T03:19:46;38.84;35.36;49.24;;
37223;Laerm;28026;48.562;14.440;2023-02-14T03:23:12;39.91;35.66;61.20;;
37223;Laerm;28026;48.562;14.440;2023-02-14T03:26:11;39.13;35.36;58.44;;
37223;Laerm;28026;48.562;14.440;2023-02-14T03:32:17;39.90;35.04;64.50;;
37223;Laerm;28026;48.562;14.440;2023-02-14T03:35:19;42.62;36.45;54.16;;
37223;Laerm;28026;48.562;14.440;2023-02-14T03:38:06;42.61;36.69;63.97;;
37223;Laerm;28026;48.562;14.440;2023-02-14T03:40:47;40.59;36.45;66.17;;
37223;Laerm;28026;48.562;14.440;2023-02-14T03:43:43;41.70;34.69;66.46;;
37223;Laerm;28026;48.562;14.440;2023-02-14T03:46:35;41.49;36.45;45.04;;
37223;Laerm;28026;48.562;14.440;2023-02-14T03:49:15;40.93;34.69;59.72;;
37223;Laerm;28026;48.562;14.440;2023-02-14T03:51:51;41.71;36.91;63.33;;
37223;Laerm;28026;48.562;14.440;2023-02-14T03:54:27;42.13;37.12;63.60;;
37223;Laerm;28026;48.562;14.440;2023-02-14T03:57:24;40.16;36.69;58.26;;
37223;Laerm;28026;48.562;14.440;2023-02-14T03:59:57;40.59;36.91;54.95;;
37223;Laerm;28026;48.562;14.440;2023-02-14T04:02:42;42.20;36.69;45.99;;
37223;Laerm;28026;48.562;14.440;2023-02-14T04:05:26;41.34;36.91;48.74;;
37223;Laerm;28026;48.562;14.440;2023-02-14T04:07:58;40.42;36.45;45.45;;
37223;Laerm;28026;48.562;14.440;2023-02-14T04:10:29;40.69;35.94;46.62;;
37223;Laerm;28026;48.562;14.440;2023-02-14T04:13:00;41.13;35.36;45.91;;
37223;Laerm;28026;48.562;14.440;2023-02-14T04:15:30;41.84;36.20;46.13;;
37223;Laerm;28026;48.562;14.440;2023-02-14T04:18:01;40.92;35.36;47.98;;
37223;Laerm;28026;48.562;14.440;2023-02-14T04:20:51;43.65;38.95;49.32;;
37223;Laerm;28026;48.562;14.440;2023-02-14T04:23:22;42.05;37.12;53.11;;
37223;Laerm;28026;48.562;14.440;2023-02-14T04:25:53;42.69;39.21;55.19;;
37223;Laerm;28026;48.562;14.440;2023-02-14T04:28:24;45.27;41.61;56.91;;
37223;Laerm;28026;48.562;14.440;2023-02-14T04:30:55;45.86;39.58;54.79;;
37223;Laerm;28026;48.562;14.440;2023-02-14T04:33:25;42.07;38.52;53.78;;
37223;Laerm;28026;48.562;14.440;2023-02-14T04:35:57;42.23;36.91;57.44;;
37223;Laerm;28026;48.562;14.440;2023-02-14T04:38:28;49.23;39.81;62.19;;
37223;Laerm;28026;48.562;14.440;2023-02-14T04:40:59;43.42;39.08;58.18;;
37223;Laerm;28026;48.562;14.440;2023-02-14T04:43:30;42.58;38.67;50.81;;
37223;Laerm;28026;48.562;14.440;2023-02-14T04:46:01;43.60;39.21;60.03;;
37223;Laerm;28026;48.562;14.440;2023-02-14T04:48:31;43.10;38.67;66.40;;
37223;Laerm;28026;48.562;14.440;2023-02-14T04:51:02;44.01;39.46;68.64;;
37223;Laerm;28026;48.562;14.440;2023-02-14T04:53:33;43.02;38.37;47.22;;
37223;Laerm;28026;48.562;14.440;2023-02-14T04:56:09;43.49;38.21;71.85;;
37223;Laerm;28026;48.562;14.440;2023-02-14T04:58:40;42.33;37.70;68.42;;
37223;Laerm;28026;48.562;14.440;2023-02-14T05:01:11;41.94;37.12;70.06;;
37223;Laerm;28026;48.562;14.440;2023-02-14T05:03:42;44.20;37.12;66.70;;
37223;Laerm;28026;48.562;14.440;2023-02-14T05:06:13;43.21;37.70;55.39;;
37223;Laerm;28026;48.562;14.440;2023-02-14T05:08:44;41.28;37.12;54.17;;
37223;Laerm;28026;48.562;14.440;2023-02-14T05:11:15;41.01;37.88;60.25;;
37223;Laerm;28026;48.562;14.440;2023-02-14T05:13:46;42.78;37.32;58.71;;
37223;Laerm;28026;48.562;14.440;2023-02-14T05:16:17;43.14;38.95;51.85;;
37223;Laerm;28026;48.562;14.440;2023-02-14T05:18:47;42.38;38.05;54.37;;
37223;Laerm;28026;48.562;14.440;2023-02-14T05:21:18;42.37;37.32;53.82;;
37223;Laerm;28026;48.562;14.440;2023-02-14T05:23:49;46.23;39.08;78.14;;
37223;Laerm;28026;48.562;14.440;2023-02-14T05:26:20;43.53;38.37;61.46;;
37223;Laerm;28026;48.562;14.440;2023-02-14T05:28:51;41.74;37.12;50.03;;
37223;Laerm;28026;48.562;14.440;2023-02-14T05:31:22;40.88;36.91;49.09;;
37223;Laerm;28026;48.562;14.440;2023-02-14T05:33:53;40.92;36.91;50.20;;
37223;Laerm;28026;48.562;14.440;2023-02-14T05:36:24;40.66;37.12;45.04;;
37223;Laerm;28026;48.562;14.440;2023-02-14T05:38:55;42.72;39.21;57.08;;
37223;Laerm;28026;48.562;14.440;2023-02-14T05:41:25;43.28;38.95;56.20;;
37223;Laerm;28026;48.562;14.440;2023-02-14T05:43:56;42.22;37.53;65.53;;
37223;Laerm;28026;48.562;14.440;2023-02-14T05:46:27;41.98;36.45;57.45;;
37223;Laerm;28026;48.562;14.440;2023-02-14T05:48:58;42.18;38.21;46.38;;
37223;Laerm;28026;48.562;14.440;2023-02-14T05:51:29;45.45;40.53;72.16;;
37223;Laerm;28026;48.562;14.440;2023-02-14T05:54:00;43.38;38.95;66.80;;
37223;Laerm;28026;48.562;14.440;2023-02-14T05:56:31;44.08;39.34;66.66;;
37223;Laerm;28026;48.562;14.440;2023-02-14T05:59:02;43.11;38.95;58.81;;
37223;Laerm;28026;48.562;14.440;2023-02-14T06:01:33;43.88;40.80;50.36;;
37223;Laerm;28026;48.562;14.440;2023-02-14T06:04:04;43.66;38.81;69.78;;
37223;Laerm;28026;48.562;14.440;2023-02-14T06:06:35;43.93;38.95;66.98;;
37223;Laerm;28026;48.562;14.440;2023-02-14T06:09:05;44.37;39.70;55.93;;
37223;Laerm;28026;48.562;14.440;2023-02-14T06:11:36;43.73;39.46;60.27;;
37223;Laerm;28026;48.562;14.440;2023-02-14T06:14:07;43.81;38.95;63.67;;
37223;Laerm;28026;48.562;14.440;2023-02-14T06:16:38;43.54;39.81;54.50;;
37223;Laerm;28026;48.562;14.440;2023-02-14T06:19:10;44.10;39.92;60.96;;
37223;Laerm;28026;48.562;14.440;2023-02-14T06:21:41;42.96;39.46;56.96;;
37223;Laerm;28026;48.562;14.440;2023-02-14T06:24:12;42.98;39.46;56.57;;
37223;Laerm;28026;48.562;14.440;2023-02-14T06:26:43;51.68;39.92;75.78;;
37223;Laerm;28026;48.562;14.440;2023-02-14T06:29:16;44.07;40.71;62.65;;
37223;Laerm;28026;48.562;14.440;2023-02-14T06:31:47;44.03;39.34;72.07;;
37223;Laerm;28026;48.562;14.440;2023-02-14T06:34:18;43.96;39.58;73.10;;
37223;Laerm;28026;48.562;14.440;2023-02-14T06:36:49;44.03;38.95;61.08;;
37223;Laerm;28026;48.562;14.440;2023-02-14T06:39:20;44.02;39.81;68.18;;
37223;Laerm;28026;48.562;14.440;2023-02-14T06:41:51;45.46;40.62;65.25;;
37223;Laerm;28026;48.562;14.440;2023-02-14T06:44:22;46.81;41.75;61.95;;
37223;Laerm;28026;48.562;14.440;2023-02-14T06:46:53;43.72;40.23;53.11;;
37223;Laerm;28026;48.562;14.440;2023-02-14T06:49:24;45.12;40.53;55.58;;
37223;Laerm;28026;48.562;14.440;2023-02-14T06:51:55;44.97;40.54;56.31;;
37223;Laerm;28026;48.562;14.440;2023-02-14T06:54:25;44.39;40.23;57.83;;
37223;Laerm;28026;48.562;14.440;2023-02-14T06:56:57;43.30;40.53;49.93;;
37223;Laerm;28026;48.562;14.440;2023-02-14T06:59:28;42.89;39.08;53.16;;
37223;Laerm;28026;48.562;14.440;2023-02-14T07:01:59;42.43;38.67;52.19;;
37223;Laerm;28026;48.562;14.440;2023-02-14T07:04:30;42.95;40.03;57.81;;
37223;Laerm;28026;48.562;14.440;2023-02-14T07:07:03;42.73;39.46;53.21;;
37223;Laerm;28026;48.562;14.440;2023-02-14T07:09:34;42.77;38.52;50.13;;
37223;Laerm;28026;48.562;14.440;2023-02-14T07:12:06;42.21;38.52;50.92;;
37223;Laerm;28026;48.562;14.440;2023-02-14T07:14:37;41.36;36.69;48.90;;
37223;Laerm;28026;48.562;14.440;2023-02-14T07:17:07;43.08;39.46;49.57;;
37223;Laerm;28026;48.562;14.440;2023-02-14T07:19:38;42.07;39.21;46.20;;
37223;Laerm;28026;48.562;14.440;2023-02-14T07:22:09;42.51;39.70;48.88;;
37223;Laerm;28026;48.562;14.440;2023-02-14T07:24:40;43.02;38.81;54.26;;
37223;Laerm;28026;48.562;14.440;2023-02-14T07:27:11;42.66;40.03;54.63;;
37223;Laerm;28026;48.562;14.440;2023-02-14T07:29:42;45.11;39.70;56.47;;
37223;Laerm;28026;48.562;14.440;2023-02-14T07:32:13;43.76;40.71;54.00;;
37223;Laerm;28026;48.562;14.440;2023-02-14T07:34:44;43.26;40.33;55.26;;
37223;Laerm;28026;48.562;14.440;2023-02-14T07:37:15;44.12;40.43;55.65;;
37223;Laerm;28026;48.562;14.440;2023-02-14T07:39:47;43.23;39.89;52.32;;
37223;Laerm;28026;48.562;14.440;2023-02-14T07:42:18;42.28;39.08;54.84;;
37223;Laerm;28026;48.562;14.440;2023-02-14T07:44:49;43.13;39.46;49.24;;
37223;Laerm;28026;48.562;14.440;2023-02-14T07:47:19;44.13;40.36;53.64;;
37223;Laerm;28026;48.562;14.440;2023-02-14T07:49:50;42.64;39.92;52.68;;
37223;Laerm;28026;48.562;14.440;2023-02-14T07:52:21;43.69;40.23;53.45;;
37223;Laerm;28026;48.562;14.440;2023-02-14T07:54:52;42.84;39.21;50.68;;
37223;Laerm;28026;48.562;14.440;2023-02-14T07:57:23;41.54;38.52;53.78;;
37223;Laerm;28026;48.562;14.440;2023-02-14T07:59:54;42.26;38.81;48.90;;
37223;Laerm;28026;48.562;14.440;2023-02-14T08:02:24;42.09;38.52;54.34;;
37223;Laerm;28026;48.562;14.440;2023-02-14T08:04:55;43.29;40.43;51.65;;
37223;Laerm;28026;48.562;14.440;2023-02-14T08:07:26;42.67;38.95;55.98;;
37223;Laerm;28026;48.562;14.440;2023-02-14T08:09:57;42.99;38.95;51.06;;
37223;Laerm;28026;48.562;14.440;2023-02-14T08:12:28;42.11;38.05;47.74;;
37223;Laerm;28026;48.562;14.440;2023-02-14T08:15:17;40.95;37.52;53.13;;
37223;Laerm;28026;48.562;14.440;2023-02-14T08:18:07;43.18;38.81;49.07;;
37223;Laerm;28026;48.562;14.440;2023-02-14T08:20:38;42.30;38.05;51.95;;
37223;Laerm;28026;48.562;14.440;2023-02-14T08:23:10;42.43;38.37;49.41;;
37223;Laerm;28026;48.562;14.440;2023-02-14T08:25:41;41.77;37.70;57.55;;
37223;Laerm;28026;48.562;14.440;2023-02-14T08:28:12;42.57;38.95;55.22;;
37223;Laerm;28026;48.562;14.440;2023-02-14T08:30:45;43.19;39.46;49.88;;
37223;Laerm;28026;48.562;14.440;2023-02-14T08:33:16;42.96;38.05;56.58;;
37223;Laerm;28026;48.562;14.440;2023-02-14T08:35:50;41.81;37.88;59.00;;
37223;Laerm;28026;48.562;14.440;2023-02-14T08:38:21;42.65;37.88;55.49;;
37223;Laerm;28026;48.562;14.440;2023-02-14T08:40:52;41.96;37.32;51.02;;
37223;Laerm;28026;48.562;14.440;2023-02-14T08:43:23;44.64;39.92;52.90;;
37223;Laerm;28026;48.562;14.440;2023-02-14T08:45:54;42.85;38.21;53.56;;
37223;Laerm;28026;48.562;14.440;2023-02-14T08:48:25;42.18;37.70;53.69;;
37223;Laerm;28026;48.562;14.440;2023-02-14T08:50:56;42.86;38.81;59.25;;
37223;Laerm;28026;48.562;14.440;2023-02-14T08:53:27;42.34;38.05;55.81;;
37223;Laerm;28026;48.562;14.440;2023-02-14T08:56:12;45.67;39.08;75.04;;
37223;Laerm;28026;48.562;14.440;2023-02-14T08:58:43;42.45;37.52;59.98;;
37223;Laerm;28026;48.562;14.440;2023-02-14T09:01:16;43.66;38.52;61.86;;
37223;Laerm;28026;48.562;14.440;2023-02-14T09:03:47;45.02;38.67;63.70;;
37223;Laerm;28026;48.562;14.440;2023-02-14T09:06:18;44.15;38.52;57.94;;
37223;Laerm;28026;48.562;14.440;2023-02-14T09:08:49;43.66;38.21;56.22;;
37223;Laerm;28026;48.562;14.440;2023-02-14T09:11:24;42.83;37.32;58.39;;
37223;Laerm;28026;48.562;14.440;2023-02-14T09:13:55;43.44;37.88;58.56;;
37223;Laerm;28026;48.562;14.440;2023-02-14T09:16:26;43.25;38.47;58.49;;
37223;Laerm;28026;48.562;14.440;2023-02-14T09:18:57;43.58;37.32;57.20;;
37223;Laerm;28026;48.562;14.440;2023-02-14T09:21:28;44.63;37.52;59.10;;
37223;Laerm;28026;48.562;14.440;2023-02-14T09:24:00;45.51;37.88;60.36;;
37223;Laerm;28026;48.562;14.440;2023-02-14T09:26:31;46.35;37.70;59.45;;
37223;Laerm;28026;48.562;14.440;2023-02-14T09:29:02;47.89;38.47;66.35;;
37223;Laerm;28026;48.562;14.440;2023-02-14T09:31:33;47.85;38.67;62.41;;
37223;Laerm;28026;48.562;14.440;2023-02-14T09:34:04;48.61;39.21;61.20;;
37223;Laerm;28026;48.562;14.440;2023-02-14T09:36:35;48.21;39.08;60.20;;
37223;Laerm;28026;48.562;14.440;2023-02-14T09:39:06;48.59;38.21;60.95;;
37223;Laerm;28026;48.562;14.440;2023-02-14T09:45:00;49.67;38.95;62.26;;
37223;Laerm;28026;48.562;14.440;2023-02-14T09:48:11;50.17;39.81;60.57;;
37223;Laerm;28026;48.562;14.440;2023-02-14T09:50:53;50.61;39.08;61.06;;
37223;Laerm;28026;48.562;14.440;2023-02-14T09:53:34;51.25;39.23;60.89;;
37223;Laerm;28026;48.562;14.440;2023-02-14T10:09:22;53.03;39.58;62.93;;
37223;Laerm;28026;48.562;14.440;2023-02-14T10:12:00;53.53;39.81;64.55;;
37223;Laerm;28026;48.562;14.440;2023-02-14T10:14:35;53.65;40.33;62.54;;
37223;Laerm;28026;48.562;14.440;2023-02-14T10:17:40;53.98;39.92;63.71;;
37223;Laerm;28026;48.562;14.440;2023-02-14T10:20:41;54.30;40.71;63.28;;
37223;Laerm;28026;48.562;14.440;2023-02-14T10:26:20;53.78;40.33;62.37;;
37223;Laerm;28026;48.562;14.440;2023-02-14T10:28:54;54.14;40.43;62.80;;
37223;Laerm;28026;48.562;14.440;2023-02-14T10:34:37;53.86;39.92;62.56;;
37223;Laerm;28026;48.562;14.440;2023-02-14T10:38:07;54.08;41.14;63.13;;
37223;Laerm;28026;48.562;14.440;2023-02-14T10:41:19;54.77;38.67;64.72;;
37223;Laerm;28026;48.562;14.440;2023-02-14T10:54:16;54.63;41.06;63.68;;
37223;Laerm;28026;48.562;14.440;2023-02-14T10:57:02;54.64;41.30;62.50;;
37223;Laerm;28026;48.562;14.440;2023-02-14T10:59:56;54.29;41.96;62.63;;
37223;Laerm;28026;48.562;14.440;2023-02-14T11:02:38;54.24;41.06;62.80;;
37223;Laerm;28026;48.562;14.440;2023-02-14T11:05:31;53.94;41.38;61.91;;
37223;Laerm;28026;48.562;14.440;2023-02-14T11:08:30;53.56;41.14;63.97;;
37223;Laerm;28026;48.562;14.440;2023-02-14T11:11:43;53.80;41.75;62.64;;
37223;Laerm;28026;48.562;14.440;2023-02-14T11:14:33;54.01;41.38;62.84;;
37223;Laerm;28026;48.562;14.440;2023-02-14T11:17:30;53.85;41.30;62.92;;
37223;Laerm;28026;48.562;14.440;2023-02-14T11:20:28;53.84;41.06;62.94;;
37223;Laerm;28026;48.562;14.440;2023-02-14T11:23:00;54.25;41.46;63.15;;
37223;Laerm;28026;48.562;14.440;2023-02-14T11:25:31;54.25;41.75;63.24;;
37223;Laerm;28026;48.562;14.440;2023-02-14T11:28:13;54.57;41.68;63.61;;
37223;Laerm;28026;48.562;14.440;2023-02-14T11:30:50;54.58;42.16;64.49;;
37223;Laerm;28026;48.562;14.440;2023-02-14T11:33:42;54.92;41.89;63.16;;
37223;Laerm;28026;48.562;14.440;2023-02-14T11:36:14;54.76;42.35;63.57;;
37223;Laerm;28026;48.562;14.440;2023-02-14T11:39:10;54.68;42.03;63.00;;
37223;Laerm;28026;48.562;14.440;2023-02-14T11:41:58;54.46;42.22;63.07;;
37223;Laerm;28026;48.562;14.440;2023-02-14T11:44:33;54.59;41.68;63.40;;
37223;Laerm;28026;48.562;14.440;2023-02-14T11:47:27;54.58;40.03;64.12;;
37223;Laerm;28026;48.562;14.440;2023-02-14T11:50:14;54.78;42.22;64.39;;
37223;Laerm;28026;48.562;14.440;2023-02-14T11:52:54;54.82;41.06;63.72;;
37223;Laerm;28026;48.562;14.440;2023-02-14T11:55:32;54.85;41.22;62.37;;
37223;Laerm;28026;48.562;14.440;2023-02-14T11:58:06;54.54;41.75;63.54;;
37223;Laerm;28026;48.562;14.440;2023-02-14T12:00:38;54.70;42.47;64.54;;
37223;Laerm;28026;48.562;14.440;2023-02-14T12:03:18;54.89;42.09;63.82;;
37223;Laerm;28026;48.562;14.440;2023-02-14T12:05:50;54.96;41.46;64.50;;
37223;Laerm;28026;48.562;14.440;2023-02-14T12:08:30;55.00;42.22;63.38;;
37223;Laerm;28026;48.562;14.440;2023-02-14T12:11:23;55.16;42.47;64.82;;
37223;Laerm;28026;48.562;14.440;2023-02-14T12:13:57;55.07;42.35;65.00;;
37223;Laerm;28026;48.562;14.440;2023-02-14T12:16:48;55.35;42.71;64.28;;
37223;Laerm;28026;48.562;14.440;2023-02-14T12:19:50;55.07;41.96;64.58;;
37223;Laerm;28026;48.562;14.440;2023-02-14T12:22:36;54.98;42.82;65.25;;
37223;Laerm;28026;48.562;14.440;2023-02-14T12:25:25;54.91;42.29;64.73;;
37223;Laerm;28026;48.562;14.440;2023-02-14T12:28:12;54.83;41.82;63.97;;
37223;Laerm;28026;48.562;14.440;2023-02-14T12:30:45;54.68;41.68;64.63;;
37223;Laerm;28026;48.562;14.440;2023-02-14T12:33:20;54.66;42.09;65.44;;
37223;Laerm;28026;48.562;14.440;2023-02-14T12:36:06;54.54;41.75;65.01;;
37223;Laerm;28026;48.562;14.440;2023-02-14T12:39:01;54.31;42.22;65.79;;
37223;Laerm;28026;48.562;14.440;2023-02-14T12:48:36;54.27;42.30;64.09;;
37223;Laerm;28026;48.562;14.440;2023-02-14T12:54:52;54.33;41.61;65.52;;
37223;Laerm;28026;48.562;14.440;2023-02-14T12:58:16;54.40;42.41;64.76;;
37223;Laerm;28026;48.562;14.440;2023-02-14T13:10:57;54.44;41.68;65.58;;
37223;Laerm;28026;48.562;14.440;2023-02-14T13:13:59;54.46;40.98;64.51;;
37223;Laerm;28026;48.562;14.440;2023-02-14T13:16:53;54.60;41.61;64.58;;
37223;Laerm;28026;48.562;14.440;2023-02-14T13:25:59;54.18;41.75;64.38;;
37223;Laerm;28026;48.562;14.440;2023-02-14T13:28:35;54.01;41.68;62.70;;
37223;Laerm;28026;48.562;14.440;2023-02-14T13:31:09;53.52;41.30;63.67;;
37223;Laerm;28026;48.562;14.440;2023-02-14T13:34:00;53.77;41.82;62.32;;
37223;Laerm;28026;48.562;14.440;2023-02-14T13:36:34;53.99;41.68;62.33;;
37223;Laerm;28026;48.562;14.440;2023-02-14T13:39:14;53.62;41.30;63.32;;
37223;Laerm;28026;48.562;14.440;2023-02-14T13:41:48;53.43;40.80;63.19;;
37223;Laerm;28026;48.562;14.440;2023-02-14T13:44:49;53.52;40.80;62.51;;
37223;Laerm;28026;48.562;14.440;2023-02-14T13:47:25;53.62;40.53;63.35;;
37223;Laerm;28026;48.562;14.440;2023-02-14T13:50:02;53.52;40.71;65.13;;
37223;Laerm;28026;48.562;14.440;2023-02-14T13:52:47;53.34;40.98;62.86;;
37223;Laerm;28026;48.562;14.440;2023-02-14T13:55:32;53.57;41.30;63.77;;
37223;Laerm;28026;48.562;14.440;2023-02-14T13:58:17;53.28;40.89;63.70;;
37223;Laerm;28026;48.562;14.440;2023-02-14T14:00:51;53.25;40.03;63.13;;
37223;Laerm;28026;48.562;14.440;2023-02-14T14:06:11;52.89;40.13;62.85;;
37223;Laerm;28026;48.562;14.440;2023-02-14T14:08:48;52.83;40.71;63.36;;
37223;Laerm;28026;48.562;14.440;2023-02-14T14:13:58;52.92;40.43;62.31;;
37223;Laerm;28026;48.562;14.440;2023-02-14T14:16:34;52.80;40.80;63.14;;
37223;Laerm;28026;48.562;14.440;2023-02-14T14:22:09;52.66;40.43;62.39;;
37223;Laerm;28026;48.562;14.440;2023-02-14T14:25:03;52.39;40.33;61.88;;
37223;Laerm;28026;48.562;14.440;2023-02-14T14:27:44;52.20;40.43;68.22;;
37223;Laerm;28026;48.562;14.440;2023-02-14T14:30:30;52.28;40.62;62.39;;
37223;Laerm;28026;48.562;14.440;2023-02-14T14:33:31;52.03;39.46;61.94;;
37223;Laerm;28026;48.562;14.440;2023-02-14T14:36:07;51.45;40.33;61.56;;
37223;Laerm;28026;48.562;14.440;2023-02-14T14:38:50;51.11;39.81;61.09;;
37223;Laerm;28026;48.562;14.440;2023-02-14T14:41:29;51.29;38.81;61.74;;
37223;Laerm;28026;48.562;14.440;2023-02-14T14:44:05;51.02;39.70;60.98;;
37223;Laerm;28026;48.562;14.440;2023-02-14T14:46:36;50.91;38.95;62.36;;
37223;Laerm;28026;48.562;14.440;2023-02-14T14:49:11;50.57;39.81;62.85;;
37223;Laerm;28026;48.562;14.440;2023-02-14T14:51:43;50.85;40.43;61.55;;
37223;Laerm;28026;48.562;14.440;2023-02-14T14:54:19;50.78;39.81;62.79;;
37223;Laerm;28026;48.562;14.440;2023-02-14T14:56:58;50.29;39.58;62.92;;
37223;Laerm;28026;48.562;14.440;2023-02-14T14:59:35;50.67;40.43;62.10;;
37223;Laerm;28026;48.562;14.440;2023-02-14T15:02:26;50.33;39.46;62.87;;
37223;Laerm;28026;48.562;14.440;2023-02-14T15:05:13;51.16;39.08;69.54;;
37223;Laerm;28026;48.562;14.440;2023-02-14T15:07:52;50.10;38.81;61.63;;
37223;Laerm;28026;48.562;14.440;2023-02-14T15:10:29;49.65;38.37;61.16;;
37223;Laerm;28026;48.562;14.440;2023-02-14T15:13:01;49.21;38.95;61.30;;
37223;Laerm;28026;48.562;14.440;2023-02-14T15:15:50;49.22;39.23;61.20;;
37223;Laerm;28026;48.562;14.440;2023-02-14T15:18:22;49.18;38.67;60.81;;
37223;Laerm;28026;48.562;14.440;2023-02-14T15:20:53;48.66;39.34;60.16;;
37223;Laerm;28026;48.562;14.440;2023-02-14T15:23:24;48.65;39.46;60.09;;
37223;Laerm;28026;48.562;14.440;2023-02-14T15:25:55;48.85;38.21;63.63;;
37223;Laerm;28026;48.562;14.440;2023-02-14T15:28:32;48.65;38.21;61.46;;
37223;Laerm;28026;48.562;14.440;2023-02-14T15:31:05;48.48;39.21;61.31;;
37223;Laerm;28026;48.562;14.440;2023-02-14T15:33:37;47.82;39.08;60.35;;
37223;Laerm;28026;48.562;14.440;2023-02-14T15:36:19;47.72;38.95;60.34;;
37223;Laerm;28026;48.562;14.440;2023-02-14T15:38:54;47.58;37.88;65.99;;
37223;Laerm;28026;48.562;14.440;2023-02-14T15:41:26;47.68;38.37;62.49;;
37223;Laerm;28026;48.562;14.440;2023-02-14T15:43:58;47.89;38.81;61.16;;
37223;Laerm;28026;48.562;14.440;2023-02-14T15:46:38;46.74;37.70;61.43;;
37223;Laerm;28026;48.562;14.440;2023-02-14T15:49:15;46.59;38.21;61.17;;
37223;Laerm;28026;48.562;14.440;2023-02-14T15:51:50;46.53;38.52;62.20;;
37223;Laerm;28026;48.562;14.440;2023-02-14T15:54:43;45.02;38.52;59.56;;
37223;Laerm;28026;48.562;14.440;2023-02-14T15:57:25;44.71;39.08;58.65;;
37223;Laerm;28026;48.562;14.440;2023-02-14T15:59:57;44.76;38.52;59.10;;
37223;Laerm;28026;48.562;14.440;2023-02-14T16:02:38;44.47;38.67;59.75;;
37223;Laerm;28026;48.562;14.440;2023-02-14T16:05:22;43.54;38.99;57.14;;
37223;Laerm;28026;48.562;14.440;2023-02-14T16:08:37;43.23;38.67;56.11;;
37223;Laerm;28026;48.562;14.440;2023-02-14T16:11:26;43.34;37.88;55.26;;